Wellsburg, North Dakota
Current Conditions -  °F | °C
As of 6:55 AM on Saturday 01 Nov 2014 (Local Time) from K5H4 Reporting Station
Clear Clear  
Wind Chill: 21°   Ceiling: Unl
Heat Index: 32°   Visibility: 10mi
Dew Point: 18°   Wind: 16mph
Humidity: 55%   Direction: 160°SSE
Pressure: 29.96"   Gusts: 23mph
Location:  47.7822°N, 99.8441°W
Report Text: K5H4 011155Z AUTO 16014G20KT 10SM CLR 00/M08 A2996 RMK AO2
Loading
Personal Weather Stations






























Interactive Weather Map
Tropical Storm Tracking
New forecast layout! Learn more

10-Day Weather Forecast

Advertisements
Track Severe Weather on mobile